Time;durP1;ratioP1;P1;durP2;ratioP2;P2;SDS_P1;SDS_P2;PMS_P1;PMS_P2;Temp;Humidity;BMP_temperature;BMP_pressure;BME280_temperature;BME280_humidity;BME280_pressure;Samples;Min_cycle;Max_cycle;Signal;HPM_P1;HPM_P2
2021/10/01 00:00:58;;;;;;;;;;;11.10;92.70;;;;;;5084229;28;19980;-53
2021/10/01 00:03:23;;;;;;;;;;;11.10;92.70;;;;;;5088160;28;19912;-56
2021/10/01 00:05:48;;;;;;;;;;;11.10;92.70;;;;;;5088390;28;19912;-56
2021/10/01 00:08:14;;;;;;;;;;;11.10;92.90;;;;;;5088179;28;19919;-59
2021/10/01 00:10:39;;;;;;;;;;;11.10;92.90;;;;;;5085977;28;19916;-58
2021/10/01 00:13:05;;;;;;;;;;;11.00;92.90;;;;;;5086364;28;20019;-51
2021/10/01 00:15:31;;;;;;;;;;;11.00;93.00;;;;;;5088599;28;19908;-59
2021/10/01 00:17:57;;;;;;;;;;;11.00;93.10;;;;;;5084534;28;20066;-51
2021/10/01 00:20:22;;;;;;;;;;;10.90;93.00;;;;;;5087959;28;20003;-59
2021/10/01 00:22:48;;;;;;;;;;;11.00;93.00;;;;;;5086027;28;19924;-60
2021/10/01 00:25:13;;;;;;;;;;;10.90;93.10;;;;;;5086685;28;20322;-54
2021/10/01 00:27:39;;;;;;;;;;;10.90;93.00;;;;;;5088045;28;19953;-61
2021/10/01 00:30:04;;;;;;;;;;;10.90;92.90;;;;;;5103819;22;20378;-71
2021/10/01 00:32:30;;;;;;;;;;;10.80;93.00;;;;;;5059225;28;20397;-71
2021/10/01 00:34:56;;;;;;;;;;;10.80;93.10;;;;;;5060655;28;19908;-71
2021/10/01 00:37:21;;;;;;;;;;;10.80;93.10;;;;;;5059698;28;19912;-71
2021/10/01 00:39:47;;;;;;;;;;;10.80;93.30;;;;;;5055024;28;19923;-71
2021/10/01 00:42:12;;;;;;;;;;;10.80;93.10;;;;;;5047805;28;20026;-71
2021/10/01 00:44:38;;;;;;;;;;;10.80;93.10;;;;;;5047690;28;20008;-71
2021/10/01 00:47:03;;;;;;;;;;;10.70;93.10;;;;;;5049464;28;19967;-71
2021/10/01 00:49:28;;;;;;;;;;;10.70;93.20;;;;;;5046749;28;19925;-71
2021/10/01 00:51:54;;;;;;;;;;;10.70;93.20;;;;;;5047023;28;19963;-71
2021/10/01 00:54:19;;;;;;;;;;;10.60;93.20;;;;;;5046112;28;19971;-71
2021/10/01 00:56:45;;;;;;;;;;;10.60;93.40;;;;;;5048497;28;19921;-71
2021/10/01 00:59:11;;;;;;;;;;;10.60;93.40;;;;;;5047772;28;19970;-71
2021/10/01 01:01:36;;;;;;;;;;;10.60;93.40;;;;;;5046486;28;19944;-71
2021/10/01 01:04:04;;;;;;;;;;;10.60;93.20;;;;;;5047823;28;19978;-71
2021/10/01 01:06:48;;;;;;;;;;;10.60;93.30;;;;;;5047387;28;19917;-71
2021/10/01 01:09:33;;;;;;;;;;;10.60;93.20;;;;;;5047665;28;19923;-71
2021/10/01 01:12:10;;;;;;;;;;;10.50;93.30;;;;;;5048242;28;19966;-71
2021/10/01 01:14:38;;;;;;;;;;;10.50;93.40;;;;;;5049198;28;19916;-71
2021/10/01 01:17:04;;;;;;;;;;;10.50;93.40;;;;;;5048940;28;19917;-72
2021/10/01 01:19:42;;;;;;;;;;;10.50;93.40;;;;;;5048826;28;19955;-71
2021/10/01 01:22:16;;;;;;;;;;;10.40;93.20;;;;;;5047296;28;20327;-71
2021/10/01 01:24:56;;;;;;;;;;;10.40;93.60;;;;;;5048905;28;20363;-71
2021/10/01 01:27:40;;;;;;;;;;;10.40;93.60;;;;;;5048680;28;20304;-71
2021/10/01 01:30:13;;;;;;;;;;;10.40;93.60;;;;;;5047542;28;19948;-71
2021/10/01 01:32:41;;;;;;;;;;;10.40;93.70;;;;;;5046911;28;19916;-71
2021/10/01 01:35:12;;;;;;;;;;;10.40;93.70;;;;;;5046801;28;19995;-72
2021/10/01 01:37:40;;;;;;;;;;;10.40;93.90;;;;;;5045316;28;19956;-71
2021/10/01 01:40:08;;;;;;;;;;;10.40;93.70;;;;;;5047661;28;19959;-71
2021/10/01 01:42:34;;;;;;;;;;;10.30;93.90;;;;;;5046925;28;19923;-71
2021/10/01 01:45:01;;;;;;;;;;;10.40;93.90;;;;;;5047302;28;20027;-71
2021/10/01 01:47:26;;;;;;;;;;;10.40;93.80;;;;;;5047196;28;19975;-71
2021/10/01 01:49:52;;;;;;;;;;;10.30;93.70;;;;;;5046293;28;19952;-71
2021/10/01 01:52:18;;;;;;;;;;;10.40;93.80;;;;;;5043794;28;20307;-71
2021/10/01 01:54:45;;;;;;;;;;;10.40;93.70;;;;;;5046252;28;20368;-71
2021/10/01 01:57:11;;;;;;;;;;;10.30;93.60;;;;;;5046047;28;20268;-71
2021/10/01 01:59:36;;;;;;;;;;;10.30;93.70;;;;;;5045349;28;19921;-71
2021/10/01 02:02:03;;;;;;;;;;;10.30;93.70;;;;;;5046853;28;20276;-71
2021/10/01 02:04:29;;;;;;;;;;;10.20;93.70;;;;;;5046155;28;19921;-71
2021/10/01 02:06:55;;;;;;;;;;;10.20;93.70;;;;;;5045381;28;19913;-71
2021/10/01 02:09:21;;;;;;;;;;;10.10;93.80;;;;;;5046193;28;19927;-71
2021/10/01 02:11:48;;;;;;;;;;;10.10;93.80;;;;;;5047586;28;20004;-71
2021/10/01 02:14:16;;;;;;;;;;;10.10;93.90;;;;;;5046091;28;19923;-71
2021/10/01 02:16:42;;;;;;;;;;;10.10;94.10;;;;;;5047822;28;20361;-71
2021/10/01 02:19:08;;;;;;;;;;;10.10;94.00;;;;;;5046303;28;19913;-71
2021/10/01 02:21:35;;;;;;;;;;;10.10;94.00;;;;;;5044487;28;19923;-71
2021/10/01 02:24:00;;;;;;;;;;;10.10;94.10;;;;;;5046494;28;20350;-71
2021/10/01 02:26:37;;;;;;;;;;;10.10;94.10;;;;;;5045153;28;19952;-71
2021/10/01 02:29:15;;;;;;;;;;;10.00;94.10;;;;;;5044273;28;19924;-71
2021/10/01 02:31:50;;;;;;;;;;;10.10;94.30;;;;;;5025899;28;19928;-71
2021/10/01 02:34:18;;;;;;;;;;;10.10;94.20;;;;;;5008405;28;20008;-71
2021/10/01 02:36:44;;;;;;;;;;;10.10;94.50;;;;;;5025988;28;19916;-71
2021/10/01 02:39:09;;;;;;;;;;;10.10;94.30;;;;;;5027877;28;20386;-71
2021/10/01 02:41:34;;;;;;;;;;;10.10;94.30;;;;;;5026267;28;20306;-71
2021/10/01 02:44:00;;;;;;;;;;;10.10;94.20;;;;;;5028278;28;19916;-71
2021/10/01 02:46:25;;;;;;;;;;;10.10;94.40;;;;;;5030389;28;19932;-71
2021/10/01 02:48:51;;;;;;;;;;;10.10;94.40;;;;;;5031649;28;19913;-71
2021/10/01 02:51:19;;;;;;;;;;;10.00;94.20;;;;;;5029993;28;19913;-71
2021/10/01 02:53:51;;;;;;;;;;;10.00;94.20;;;;;;5031512;28;20352;-71
2021/10/01 02:56:23;;;;;;;;;;;10.00;94.40;;;;;;5029837;28;20372;-71
2021/10/01 02:58:55;;;;;;;;;;;10.00;94.30;;;;;;5011878;28;19920;-71
2021/10/01 03:01:21;;;;;;;;;;;10.00;94.40;;;;;;5026476;28;19921;-71
2021/10/01 03:03:48;;;;;;;;;;;10.10;94.40;;;;;;5030524;28;20347;-71
2021/10/01 03:06:17;;;;;;;;;;;10.10;94.40;;;;;;5029396;28;20231;-71
2021/10/01 03:08:43;;;;;;;;;;;10.10;94.30;;;;;;5029250;28;19956;-71
2021/10/01 03:11:10;;;;;;;;;;;10.20;94.30;;;;;;5029561;28;20067;-71
2021/10/01 03:13:38;;;;;;;;;;;10.20;94.30;;;;;;5029664;28;19913;-71
2021/10/01 03:16:04;;;;;;;;;;;10.20;94.30;;;;;;5030349;28;19917;-71
2021/10/01 03:18:30;;;;;;;;;;;10.30;94.30;;;;;;5029656;28;19917;-71
2021/10/01 03:20:56;;;;;;;;;;;10.30;94.20;;;;;;5010793;28;19971;-71
2021/10/01 03:23:22;;;;;;;;;;;10.30;94.20;;;;;;5029086;28;19924;-71
2021/10/01 03:25:48;;;;;;;;;;;10.40;94.30;;;;;;5031486;28;19927;-72
2021/10/01 03:28:13;;;;;;;;;;;10.30;94.10;;;;;;5029541;28;19917;-71
2021/10/01 03:30:40;;;;;;;;;;;10.30;94.10;;;;;;5041567;28;19921;-71
2021/10/01 03:33:05;;;;;;;;;;;10.30;94.10;;;;;;5048051;28;19975;-71
2021/10/01 03:35:31;;;;;;;;;;;10.30;94.60;;;;;;5049634;28;19948;-71
2021/10/01 03:37:57;;;;;;;;;;;10.30;94.30;;;;;;5047606;28;20299;-71
2021/10/01 03:40:23;;;;;;;;;;;10.30;94.40;;;;;;5062485;28;20329;-71
2021/10/01 03:42:49;;;;;;;;;;;10.30;94.40;;;;;;5049563;28;20353;-71
2021/10/01 03:45:14;;;;;;;;;;;10.30;94.50;;;;;;5049131;28;20003;-70
2021/10/01 03:47:39;;;;;;;;;;;10.30;94.50;;;;;;5048465;28;19948;-71
2021/10/01 03:50:05;;;;;;;;;;;10.30;94.40;;;;;;5046725;28;20275;-71
2021/10/01 03:52:32;;;;;;;;;;;10.30;94.40;;;;;;5048388;28;20055;-71
2021/10/01 03:54:57;;;;;;;;;;;10.30;94.40;;;;;;5047885;28;20031;-71
2021/10/01 03:57:23;;;;;;;;;;;10.30;94.40;;;;;;5048961;28;20028;-71
2021/10/01 03:59:48;;;;;;;;;;;10.30;94.50;;;;;;5045035;28;20056;-71
2021/10/01 04:02:14;;;;;;;;;;;10.30;94.50;;;;;;5046529;28;19913;-70
2021/10/01 04:04:39;;;;;;;;;;;10.30;94.50;;;;;;5045728;28;20356;-70
2021/10/01 04:07:05;;;;;;;;;;;10.30;94.50;;;;;;5047867;28;20252;-70
2021/10/01 04:09:30;;;;;;;;;;;10.30;94.50;;;;;;5048585;28;20359;-69
2021/10/01 04:11:57;;;;;;;;;;;10.30;94.50;;;;;;5045348;28;19913;-70
2021/10/01 04:14:22;;;;;;;;;;;10.30;94.50;;;;;;5048798;28;20019;-68
2021/10/01 04:16:48;;;;;;;;;;;10.30;94.70;;;;;;5048868;28;19952;-68
2021/10/01 04:19:14;;;;;;;;;;;10.40;94.50;;;;;;5047285;28;19971;-68
2021/10/01 04:21:39;;;;;;;;;;;10.30;94.40;;;;;;5046072;28;19921;-68
2021/10/01 04:24:04;;;;;;;;;;;10.30;94.40;;;;;;5049167;28;19944;-68
2021/10/01 04:26:30;;;;;;;;;;;10.30;94.40;;;;;;5049374;28;20279;-68
2021/10/01 04:28:55;;;;;;;;;;;10.30;94.40;;;;;;5048588;28;19913;-68
2021/10/01 04:31:21;;;;;;;;;;;10.30;94.40;;;;;;5045708;28;19925;-68
2021/10/01 04:33:46;;;;;;;;;;;10.30;94.40;;;;;;5047835;28;19923;-67
2021/10/01 04:36:12;;;;;;;;;;;10.20;94.60;;;;;;5046485;28;19916;-67
2021/10/01 04:38:38;;;;;;;;;;;10.20;94.50;;;;;;5048711;28;20286;-68
2021/10/01 04:41:04;;;;;;;;;;;10.20;94.60;;;;;;5048831;28;20011;-68
2021/10/01 04:43:29;;;;;;;;;;;10.20;94.50;;;;;;5048206;28;19927;-68
2021/10/01 04:45:56;;;;;;;;;;;10.20;94.40;;;;;;5049244;28;19909;-69
2021/10/01 04:48:21;;;;;;;;;;;10.10;94.50;;;;;;5049204;28;19920;-69
2021/10/01 04:50:47;;;;;;;;;;;10.10;94.60;;;;;;5046759;28;20026;-73
2021/10/01 04:53:12;;;;;;;;;;;10.20;94.60;;;;;;5049007;28;19920;-70
2021/10/01 04:55:38;;;;;;;;;;;10.10;94.60;;;;;;5049255;28;20382;-70
2021/10/01 04:58:05;;;;;;;;;;;10.20;94.70;;;;;;5049589;28;19927;-70
2021/10/01 05:00:30;;;;;;;;;;;10.20;94.70;;;;;;5048774;28;19913;-70
2021/10/01 05:02:56;;;;;;;;;;;10.20;94.60;;;;;;5047729;28;19995;-70
2021/10/01 05:05:22;;;;;;;;;;;10.20;94.50;;;;;;5047566;28;19935;-70
2021/10/01 05:07:47;;;;;;;;;;;10.20;94.60;;;;;;5047325;28;19974;-70
2021/10/01 05:10:13;;;;;;;;;;;10.20;94.60;;;;;;5046552;28;20300;-70
2021/10/01 05:12:39;;;;;;;;;;;10.20;94.50;;;;;;5047234;28;19939;-69
2021/10/01 05:15:05;;;;;;;;;;;10.20;94.60;;;;;;5047503;28;19988;-70
2021/10/01 05:17:33;;;;;;;;;;;10.30;94.60;;;;;;5047139;28;19999;-70
2021/10/01 05:19:59;;;;;;;;;;;10.30;94.50;;;;;;5048513;28;19912;-70
2021/10/01 05:22:24;;;;;;;;;;;10.30;94.60;;;;;;5047728;28;19913;-71
2021/10/01 05:24:49;;;;;;;;;;;10.30;94.50;;;;;;5047207;28;20331;-71
2021/10/01 05:27:15;;;;;;;;;;;10.30;94.50;;;;;;5048829;28;19919;-70
2021/10/01 05:29:40;;;;;;;;;;;10.20;94.50;;;;;;5048610;28;19931;-71
2021/10/01 05:32:06;;;;;;;;;;;10.30;94.50;;;;;;5046788;28;20497;-71
2021/10/01 05:34:31;;;;;;;;;;;10.30;94.60;;;;;;5048865;28;20264;-70
2021/10/01 05:36:57;;;;;;;;;;;10.30;94.50;;;;;;5048135;28;20013;-71
2021/10/01 05:39:22;;;;;;;;;;;10.30;94.50;;;;;;5048598;28;19913;-70
2021/10/01 05:41:48;;;;;;;;;;;10.30;94.40;;;;;;5047602;28;19921;-70
2021/10/01 05:44:13;;;;;;;;;;;10.30;94.40;;;;;;5048072;28;20006;-69
2021/10/01 05:46:46;;;;;;;;;;;10.30;94.50;;;;;;5046988;28;19921;-70
2021/10/01 05:49:18;;;;;;;;;;;10.30;94.50;;;;;;5047988;28;19999;-70
2021/10/01 05:52:14;;;;;;;;;;;10.30;94.50;;;;;;5047420;28;19920;-69
2021/10/01 05:54:32;;;;;;;;;;;10.30;94.40;;;;;;5049611;28;19909;-70
2021/10/01 05:56:58;;;;;;;;;;;10.30;94.40;;;;;;5047052;28;20350;-70
2021/10/01 05:59:23;;;;;;;;;;;10.40;94.30;;;;;;5048321;28;20340;-70
2021/10/01 06:01:49;;;;;;;;;;;10.40;94.20;;;;;;5045423;28;20395;-70
2021/10/01 06:04:15;;;;;;;;;;;10.40;94.20;;;;;;5048515;28;19916;-70
2021/10/01 06:06:40;;;;;;;;;;;10.40;93.90;;;;;;5048046;28;19913;-71
2021/10/01 06:09:11;;;;;;;;;;;10.50;93.90;;;;;;5044454;28;19923;-71
2021/10/01 06:11:37;;;;;;;;;;;10.50;93.90;;;;;;5045434;28;20375;-72
2021/10/01 06:14:05;;;;;;;;;;;10.50;93.80;;;;;;5045622;28;19936;-68
2021/10/01 06:16:30;;;;;;;;;;;10.50;93.80;;;;;;5039158;28;19927;-68
2021/10/01 06:18:56;;;;;;;;;;;10.50;93.80;;;;;;5044552;28;20252;-69
2021/10/01 06:21:21;;;;;;;;;;;10.60;93.80;;;;;;5045584;28;20236;-70
2021/10/01 06:23:46;;;;;;;;;;;10.60;93.70;;;;;;5045840;28;19917;-70
2021/10/01 06:26:12;;;;;;;;;;;10.60;93.70;;;;;;5044000;28;19912;-69
2021/10/01 06:28:37;;;;;;;;;;;10.60;93.70;;;;;;5043218;28;19921;-69
2021/10/01 06:31:05;;;;;;;;;;;10.60;93.80;;;;;;5093761;22;22421;-76
2021/10/01 06:33:31;;;;;;;;;;;10.70;93.80;;;;;;5094776;28;19927;-76
2021/10/01 06:35:57;;;;;;;;;;;10.60;93.80;;;;;;5095493;28;19914;-76
2021/10/01 06:38:22;;;;;;;;;;;10.60;93.80;;;;;;5071230;28;19908;-79
2021/10/01 06:40:48;;;;;;;;;;;10.60;93.90;;;;;;5070486;28;20340;-79
2021/10/01 06:43:16;;;;;;;;;;;10.60;93.90;;;;;;5085428;28;19908;-78
2021/10/01 06:45:43;;;;;;;;;;;10.70;94.00;;;;;;5082906;28;19912;-80
2021/10/01 06:51:21;;;;;;;;;;;10.70;93.90;;;;;;5051121;28;20421;-75
2021/10/01 07:21:38;;;;;;;;;;;11.50;93.90;;;;;;5086006;28;19923;-77
2021/10/01 07:34:27;;;;;;;;;;;11.80;93.50;;;;;;5085931;28;20388;-76
2021/10/01 07:35:35;;;;;;;;;;;12.10;93.00;;;;;;5090109;28;19923;-76
2021/10/01 08:18:51;;;;;;;;;;;13.80;90.80;;;;;;5089828;28;20015;-80
2021/10/01 08:21:17;;;;;;;;;;;14.00;90.60;;;;;;5087601;28;19912;-77
2021/10/01 08:23:43;;;;;;;;;;;14.20;90.50;;;;;;5089743;28;19995;-76
2021/10/01 08:26:08;;;;;;;;;;;14.30;90.50;;;;;;5088190;28;20373;-77
2021/10/01 08:28:34;;;;;;;;;;;14.40;90.00;;;;;;5090115;28;20022;-76
2021/10/01 08:30:59;;;;;;;;;;;14.60;90.30;;;;;;5064833;28;19924;-75
2021/10/01 08:33:25;;;;;;;;;;;14.70;90.10;;;;;;5068790;28;19920;-71
2021/10/01 08:35:50;;;;;;;;;;;14.90;90.10;;;;;;5067084;28;19932;-75
2021/10/01 08:38:16;;;;;;;;;;;15.00;88.70;;;;;;5064689;28;19913;-73
2021/10/01 08:40:41;;;;;;;;;;;15.20;88.60;;;;;;5069506;28;20014;-74
2021/10/01 08:43:07;;;;;;;;;;;15.30;87.40;;;;;;5066702;28;19923;-73
2021/10/01 08:45:33;;;;;;;;;;;15.40;85.90;;;;;;5069511;28;19961;-72
2021/10/01 08:48:00;;;;;;;;;;;15.50;85.90;;;;;;5066815;28;19970;-74
2021/10/01 08:50:26;;;;;;;;;;;15.70;86.00;;;;;;5066408;28;20694;-72
2021/10/01 08:52:52;;;;;;;;;;;15.80;85.90;;;;;;5067646;28;19916;-73
2021/10/01 08:55:18;;;;;;;;;;;15.90;84.00;;;;;;5067385;28;19969;-73
2021/10/01 08:57:43;;;;;;;;;;;15.90;83.50;;;;;;5065645;28;19991;-74
2021/10/01 09:00:14;;;;;;;;;;;15.80;83.90;;;;;;5067954;28;20422;-71
2021/10/01 09:02:40;;;;;;;;;;;15.80;83.10;;;;;;5068046;28;20384;-74
2021/10/01 09:05:06;;;;;;;;;;;15.90;83.40;;;;;;5065944;28;19920;-72
2021/10/01 09:07:31;;;;;;;;;;;16.00;82.30;;;;;;5067894;28;19912;-72
2021/10/01 09:09:56;;;;;;;;;;;16.00;82.10;;;;;;5081310;28;19939;-75
2021/10/01 09:12:22;;;;;;;;;;;16.10;80.50;;;;;;5083116;28;20011;-74
2021/10/01 09:14:53;;;;;;;;;;;16.10;79.90;;;;;;5068408;28;20266;-73
2021/10/01 09:17:20;;;;;;;;;;;16.20;81.70;;;;;;5066537;28;19924;-74
2021/10/01 09:19:45;;;;;;;;;;;16.30;78.90;;;;;;5066166;28;19963;-74
2021/10/01 09:22:22;;;;;;;;;;;16.30;79.70;;;;;;5074657;28;19944;-76
2021/10/01 09:24:47;;;;;;;;;;;16.30;79.00;;;;;;5066069;28;20019;-76
2021/10/01 09:27:13;;;;;;;;;;;16.50;80.30;;;;;;5068093;28;19927;-75
2021/10/01 09:29:38;;;;;;;;;;;16.70;79.20;;;;;;5079265;28;19920;-75
2021/10/01 09:32:11;;;;;;;;;;;16.70;77.90;;;;;;5088578;28;19916;-76
2021/10/01 09:34:39;;;;;;;;;;;16.80;78.30;;;;;;5089333;28;20465;-76
2021/10/01 09:37:09;;;;;;;;;;;17.00;77.30;;;;;;5087932;28;19916;-76
2021/10/01 09:39:39;;;;;;;;;;;17.10;77.20;;;;;;5088597;28;19943;-76
2021/10/01 09:42:12;;;;;;;;;;;17.30;76.70;;;;;;5087673;28;20304;-76
2021/10/01 09:44:41;;;;;;;;;;;17.30;76.40;;;;;;5088769;28;19908;-77
2021/10/01 09:47:07;;;;;;;;;;;17.40;74.30;;;;;;5062406;28;20340;-77
2021/10/01 09:49:33;;;;;;;;;;;17.40;72.90;;;;;;5061577;28;19920;-77
2021/10/01 09:51:59;;;;;;;;;;;17.40;73.10;;;;;;5068060;28;19920;-84
2021/10/01 09:54:26;;;;;;;;;;;17.50;72.70;;;;;;5069334;28;19989;-75
2021/10/01 09:56:52;;;;;;;;;;;17.60;72.80;;;;;;5087543;28;19912;-74
2021/10/01 09:59:19;;;;;;;;;;;17.70;72.70;;;;;;5085892;28;19919;-75
2021/10/01 10:02:03;;;;;;;;;;;17.70;72.40;;;;;;5084962;28;19951;-74
2021/10/01 10:04:29;;;;;;;;;;;17.90;71.60;;;;;;5085903;28;19928;-72
2021/10/01 10:06:55;;;;;;;;;;;17.90;72.50;;;;;;5086473;28;19916;-74
2021/10/01 10:09:31;;;;;;;;;;;18.10;71.10;;;;;;5086603;28;19912;-74
2021/10/01 10:11:57;;;;;;;;;;;18.10;67.70;;;;;;5067438;28;19913;-76
2021/10/01 10:14:22;;;;;;;;;;;18.20;68.90;;;;;;5085980;28;19916;-75
2021/10/01 10:16:47;;;;;;;;;;;18.20;67.50;;;;;;5087668;28;20255;-74
2021/10/01 10:19:20;;;;;;;;;;;18.40;68.20;;;;;;5086311;28;19916;-74
2021/10/01 10:21:46;;;;;;;;;;;18.40;66.30;;;;;;5087404;28;19953;-74
2021/10/01 10:24:11;;;;;;;;;;;18.40;66.10;;;;;;5088132;28;19957;-75
2021/10/01 10:26:37;;;;;;;;;;;18.40;66.80;;;;;;5088055;28;19908;-75
2021/10/01 10:29:04;;;;;;;;;;;18.40;65.00;;;;;;5087197;28;20302;-78
2021/10/01 10:31:30;;;;;;;;;;;18.40;66.20;;;;;;5080406;28;19920;-75
2021/10/01 10:33:57;;;;;;;;;;;18.40;66.30;;;;;;5085549;28;19962;-76
2021/10/01 10:36:34;;;;;;;;;;;18.50;65.90;;;;;;5087457;28;19915;-75
2021/10/01 10:39:19;;;;;;;;;;;18.60;65.90;;;;;;5085262;28;19969;-75
2021/10/01 10:42:08;;;;;;;;;;;18.60;66.30;;;;;;5067436;28;19931;-75
2021/10/01 10:44:40;;;;;;;;;;;18.60;65.60;;;;;;5077545;28;19916;-77
2021/10/01 10:47:05;;;;;;;;;;;18.80;65.20;;;;;;5085385;28;20350;-75
2021/10/01 10:49:31;;;;;;;;;;;18.90;61.70;;;;;;5067228;28;20106;-74
2021/10/01 10:51:59;;;;;;;;;;;19.10;61.10;;;;;;5085291;28;20267;-75
2021/10/01 10:54:25;;;;;;;;;;;19.10;59.90;;;;;;5066259;28;20409;-74
2021/10/01 10:57:09;;;;;;;;;;;19.30;59.90;;;;;;5086297;28;19912;-73
2021/10/01 10:59:35;;;;;;;;;;;19.40;61.00;;;;;;5086313;28;19912;-77
2021/10/01 11:02:30;;;;;;;;;;;19.50;55.80;;;;;;5084176;28;19974;-72
2021/10/01 11:05:14;;;;;;;;;;;19.50;56.40;;;;;;5071845;28;19962;-73
2021/10/01 11:07:56;;;;;;;;;;;19.60;57.00;;;;;;5089068;28;19916;-73
2021/10/01 11:10:37;;;;;;;;;;;19.80;55.80;;;;;;5069582;28;19916;-74
2021/10/01 11:13:35;;;;;;;;;;;20.00;54.90;;;;;;5072712;28;19943;-74
2021/10/01 11:16:12;;;;;;;;;;;20.00;52.60;;;;;;5043872;28;19970;-75
2021/10/01 11:18:47;;;;;;;;;;;20.20;52.50;;;;;;5090943;28;19947;-75
2021/10/01 11:21:25;;;;;;;;;;;20.30;53.70;;;;;;5088997;28;19912;-73
2021/10/01 11:23:58;;;;;;;;;;;20.30;53.20;;;;;;5089001;28;19978;-72
2021/10/01 11:26:28;;;;;;;;;;;20.30;52.10;;;;;;5091349;28;19920;-72
2021/10/01 11:28:53;;;;;;;;;;;20.30;50.60;;;;;;5093971;28;19915;-72
2021/10/01 11:31:19;;;;;;;;;;;20.20;47.10;;;;;;5094308;28;20366;-75
2021/10/01 11:33:51;;;;;;;;;;;20.00;49.60;;;;;;5089642;28;20282;-74
2021/10/01 11:36:23;;;;;;;;;;;19.90;49.20;;;;;;5089549;28;19962;-73
2021/10/01 11:38:49;;;;;;;;;;;19.80;49.40;;;;;;5089084;28;20235;-72
2021/10/01 11:41:16;;;;;;;;;;;19.80;50.50;;;;;;5089175;28;19915;-77
2021/10/01 11:43:48;;;;;;;;;;;19.90;47.90;;;;;;5090250;28;20542;-78
2021/10/01 11:46:23;;;;;;;;;;;19.90;50.30;;;;;;5090450;28;19923;-70
2021/10/01 11:48:48;;;;;;;;;;;19.90;50.70;;;;;;5088604;28;19930;-80
2021/10/01 11:51:14;;;;;;;;;;;20.00;49.60;;;;;;5087263;28;20275;-79
2021/10/01 11:53:39;;;;;;;;;;;20.00;48.80;;;;;;5072076;28;20264;-79
2021/10/01 11:56:07;;;;;;;;;;;20.00;48.50;;;;;;5089060;28;19923;-74
2021/10/01 11:58:34;;;;;;;;;;;20.10;49.50;;;;;;5063634;28;19958;-73
2021/10/01 12:01:09;;;;;;;;;;;20.10;48.50;;;;;;5088291;28;19916;-74
2021/10/01 12:03:35;;;;;;;;;;;20.10;49.00;;;;;;5089603;28;19985;-76
2021/10/01 12:06:00;;;;;;;;;;;20.10;50.20;;;;;;5088538;28;20373;-75
2021/10/01 12:08:29;;;;;;;;;;;20.20;49.50;;;;;;5069157;28;19920;-74
2021/10/01 12:10:55;;;;;;;;;;;20.20;49.80;;;;;;5088574;28;19931;-74
2021/10/01 12:13:22;;;;;;;;;;;20.20;49.50;;;;;;5088496;28;20392;-75
2021/10/01 12:15:50;;;;;;;;;;;20.20;50.10;;;;;;5097209;28;19908;-74
2021/10/01 12:18:24;;;;;;;;;;;20.20;50.10;;;;;;5088654;28;20110;-73
2021/10/01 12:20:50;;;;;;;;;;;20.10;49.00;;;;;;5088207;28;20413;-74
2021/10/01 12:23:20;;;;;;;;;;;20.10;48.70;;;;;;5089383;28;19959;-75
2021/10/01 12:25:46;;;;;;;;;;;20.20;49.80;;;;;;5086840;28;19924;-72
2021/10/01 12:28:12;;;;;;;;;;;20.30;49.50;;;;;;5089161;28;20310;-75
2021/10/01 12:30:37;;;;;;;;;;;20.20;49.00;;;;;;5100369;22;20528;-67
2021/10/01 12:33:03;;;;;;;;;;;20.20;49.40;;;;;;5077276;28;19943;-69
2021/10/01 12:35:28;;;;;;;;;;;20.30;49.90;;;;;;5068756;28;19995;-68
2021/10/01 12:37:54;;;;;;;;;;;20.30;48.50;;;;;;5074961;28;19976;-68
2021/10/01 12:40:19;;;;;;;;;;;20.30;47.50;;;;;;5078966;28;19916;-67
2021/10/01 12:42:50;;;;;;;;;;;20.30;48.30;;;;;;5074397;28;20004;-68
2021/10/01 12:45:17;;;;;;;;;;;20.40;48.40;;;;;;5078137;28;19917;-67
2021/10/01 12:47:44;;;;;;;;;;;20.50;47.00;;;;;;5092399;28;19920;-68
2021/10/01 12:50:16;;;;;;;;;;;20.50;47.80;;;;;;5076591;28;19932;-69
2021/10/01 12:52:44;;;;;;;;;;;20.50;49.60;;;;;;5077861;28;19912;-67
2021/10/01 12:55:10;;;;;;;;;;;20.60;48.40;;;;;;5078058;28;20359;-67
2021/10/01 12:57:39;;;;;;;;;;;20.50;48.00;;;;;;5076928;28;19920;-67
2021/10/01 13:00:04;;;;;;;;;;;20.40;48.80;;;;;;5073135;28;19923;-70
2021/10/01 13:02:39;;;;;;;;;;;20.40;49.40;;;;;;5079369;28;20238;-70
2021/10/01 13:05:23;;;;;;;;;;;20.40;48.20;;;;;;5077429;28;19924;-70
2021/10/01 13:07:53;;;;;;;;;;;20.40;48.70;;;;;;5077689;28;20323;-70
2021/10/01 13:10:20;;;;;;;;;;;20.40;47.80;;;;;;5076559;28;19935;-70
2021/10/01 13:12:50;;;;;;;;;;;20.40;48.30;;;;;;5078785;28;19920;-70
2021/10/01 13:15:18;;;;;;;;;;;20.40;48.90;;;;;;5077000;28;19917;-69
2021/10/01 13:17:57;;;;;;;;;;;20.40;49.40;;;;;;5076472;28;19916;-69
2021/10/01 13:20:24;;;;;;;;;;;20.50;48.90;;;;;;5077210;28;19922;-69
2021/10/01 13:22:54;;;;;;;;;;;20.50;48.60;;;;;;5077449;28;19916;-70
2021/10/01 13:25:23;;;;;;;;;;;20.60;49.30;;;;;;5089219;28;19920;-69
2021/10/01 13:27:49;;;;;;;;;;;20.60;48.80;;;;;;5077161;28;20436;-67
2021/10/01 13:30:15;;;;;;;;;;;20.60;49.20;;;;;;5073666;28;19927;-68
2021/10/01 13:32:41;;;;;;;;;;;20.60;49.20;;;;;;5076939;28;19920;-71
2021/10/01 13:35:06;;;;;;;;;;;20.60;49.70;;;;;;5079191;28;20420;-71
2021/10/01 13:37:32;;;;;;;;;;;20.70;52.40;;;;;;5079655;28;19999;-71
2021/10/01 13:39:59;;;;;;;;;;;20.70;51.30;;;;;;5069143;28;19912;-71
2021/10/01 13:42:27;;;;;;;;;;;20.80;51.00;;;;;;5074697;28;20237;-66
2021/10/01 13:44:52;;;;;;;;;;;20.80;51.20;;;;;;5077625;28;19912;-66
2021/10/01 13:47:18;;;;;;;;;;;20.80;49.60;;;;;;5078458;28;19923;-66
2021/10/01 13:49:43;;;;;;;;;;;20.80;49.60;;;;;;5075403;28;19973;-67
2021/10/01 13:52:09;;;;;;;;;;;20.80;48.80;;;;;;5077322;28;19919;-67
2021/10/01 13:54:34;;;;;;;;;;;20.80;48.40;;;;;;5074150;28;20296;-66
2021/10/01 13:57:00;;;;;;;;;;;20.80;47.70;;;;;;5076380;28;19916;-67
2021/10/01 13:59:25;;;;;;;;;;;20.70;48.00;;;;;;5076424;28;19931;-66
2021/10/01 14:01:50;;;;;;;;;;;20.80;48.30;;;;;;5072726;28;19928;-66
2021/10/01 14:04:16;;;;;;;;;;;20.70;48.00;;;;;;5073019;28;19920;-66
2021/10/01 14:06:41;;;;;;;;;;;20.80;47.70;;;;;;5070562;28;19912;-67
2021/10/01 14:09:07;;;;;;;;;;;20.80;47.70;;;;;;5075321;28;20501;-66
2021/10/01 14:11:32;;;;;;;;;;;20.70;47.70;;;;;;5077662;28;19916;-66
2021/10/01 14:13:59;;;;;;;;;;;20.60;47.30;;;;;;5075250;28;20050;-67
2021/10/01 14:16:24;;;;;;;;;;;20.60;47.00;;;;;;5078040;28;19955;-66
2021/10/01 14:18:50;;;;;;;;;;;20.50;48.20;;;;;;5075303;28;19977;-66
2021/10/01 14:21:15;;;;;;;;;;;20.50;47.70;;;;;;5074172;28;19916;-66
2021/10/01 14:23:41;;;;;;;;;;;20.50;47.40;;;;;;5073081;28;19921;-66
2021/10/01 14:26:06;;;;;;;;;;;20.50;47.30;;;;;;5075548;28;20041;-66
2021/10/01 14:28:32;;;;;;;;;;;20.40;47.40;;;;;;5075361;28;19912;-67
2021/10/01 14:30:57;;;;;;;;;;;20.40;47.30;;;;;;5074772;28;20996;-66
2021/10/01 14:33:22;;;;;;;;;;;20.30;47.50;;;;;;5076204;28;19942;-67
2021/10/01 14:35:48;;;;;;;;;;;20.40;46.60;;;;;;5074559;28;20266;-67
2021/10/01 14:38:14;;;;;;;;;;;20.30;46.70;;;;;;5075425;28;19924;-67
2021/10/01 14:40:41;;;;;;;;;;;20.30;47.50;;;;;;5073776;28;19913;-66
2021/10/01 14:43:06;;;;;;;;;;;20.20;47.60;;;;;;5075940;28;20028;-67
2021/10/01 14:45:32;;;;;;;;;;;20.20;48.50;;;;;;5075673;28;20370;-67
2021/10/01 14:47:58;;;;;;;;;;;20.20;48.50;;;;;;5075855;28;20812;-68
2021/10/01 14:50:23;;;;;;;;;;;20.20;48.50;;;;;;5074389;28;19920;-67
2021/10/01 14:52:50;;;;;;;;;;;20.10;48.80;;;;;;5076396;28;19966;-67
2021/10/01 14:55:15;;;;;;;;;;;20.10;48.20;;;;;;5074283;28;19912;-67
2021/10/01 14:57:41;;;;;;;;;;;20.00;48.60;;;;;;5076855;28;19909;-67
2021/10/01 15:00:07;;;;;;;;;;;20.00;48.50;;;;;;5077517;28;20473;-67
2021/10/01 15:02:33;;;;;;;;;;;20.00;48.80;;;;;;5077904;28;20370;-67
2021/10/01 15:04:59;;;;;;;;;;;19.90;48.80;;;;;;5078779;28;19916;-67
2021/10/01 15:07:24;;;;;;;;;;;20.00;48.90;;;;;;5078046;28;19916;-67
2021/10/01 15:09:50;;;;;;;;;;;20.00;49.40;;;;;;5077717;28;19916;-67
2021/10/01 15:12:15;;;;;;;;;;;19.90;49.40;;;;;;5075910;28;19926;-67
2021/10/01 15:14:41;;;;;;;;;;;19.90;49.30;;;;;;5078150;28;19973;-67
2021/10/01 15:17:06;;;;;;;;;;;19.90;49.70;;;;;;5077096;28;19919;-67
2021/10/01 15:19:32;;;;;;;;;;;19.90;50.00;;;;;;5077382;28;19919;-67
2021/10/01 15:21:57;;;;;;;;;;;19.90;49.90;;;;;;5076354;28;20297;-67
2021/10/01 15:24:22;;;;;;;;;;;19.90;50.00;;;;;;5076215;28;19918;-67
2021/10/01 15:26:48;;;;;;;;;;;19.80;50.10;;;;;;5077048;28;19923;-67
2021/10/01 15:29:13;;;;;;;;;;;19.80;50.80;;;;;;5076510;28;20401;-67
2021/10/01 15:31:39;;;;;;;;;;;19.80;50.40;;;;;;5075877;28;20347;-67
2021/10/01 15:34:04;;;;;;;;;;;19.80;50.90;;;;;;5076850;28;20323;-67
2021/10/01 15:36:30;;;;;;;;;;;19.80;51.00;;;;;;5076735;28;19912;-67
2021/10/01 15:38:56;;;;;;;;;;;19.70;51.30;;;;;;5076059;28;19973;-67